createdAt,value
2016-07-12T00:00:16.648Z,0
2016-07-12T00:01:16.674Z,0
2016-07-12T00:02:31.604Z,0
2016-07-12T00:03:16.726Z,0
2016-07-12T00:04:16.763Z,0
2016-07-12T00:05:16.783Z,0
2016-07-12T00:06:16.799Z,0
2016-07-12T00:07:31.745Z,0
2016-07-12T00:09:31.809Z,0
2016-07-12T00:10:16.924Z,0
2016-07-12T00:11:31.864Z,0
2016-07-12T00:12:31.890Z,0
2016-07-12T00:13:17.006Z,0
2016-07-12T00:14:17.044Z,0
2016-07-12T00:15:17.060Z,0
2016-07-12T00:16:17.082Z,0
2016-07-12T00:17:17.111Z,0
2016-07-12T00:18:32.051Z,0
2016-07-12T00:19:17.173Z,0
2016-07-12T00:20:17.215Z,0
2016-07-12T00:21:17.231Z,0
2016-07-12T00:22:32.174Z,0
2016-07-12T00:23:17.295Z,0
2016-07-12T00:24:17.314Z,0
2016-07-12T00:25:32.258Z,0
2016-07-12T00:26:17.360Z,0
2016-07-12T00:27:17.398Z,0
2016-07-12T00:28:17.428Z,0
2016-07-12T00:29:17.454Z,0
2016-07-12T00:30:32.390Z,0
2016-07-12T00:31:17.512Z,0
2016-07-12T00:32:17.534Z,0
2016-07-12T00:33:17.570Z,0
2016-07-12T00:34:32.513Z,0
2016-07-12T00:35:17.629Z,0
2016-07-12T00:36:17.646Z,0
2016-07-12T00:37:17.671Z,0
2016-07-12T00:38:17.700Z,0
2016-07-12T00:39:17.730Z,0
2016-07-12T00:40:17.757Z,0
2016-07-12T00:41:17.793Z,0
2016-07-12T00:42:32.731Z,0
2016-07-12T00:43:17.846Z,0
2016-07-12T00:44:17.866Z,0
2016-07-12T00:45:32.809Z,0
2016-07-12T00:47:17.971Z,0
2016-07-12T00:48:17.981Z,0
2016-07-12T00:49:18.012Z,0
2016-07-12T00:50:32.949Z,0
2016-07-12T00:51:18.110Z,0
2016-07-12T00:52:18.090Z,0
2016-07-12T00:53:18.124Z,0
2016-07-12T00:54:33.065Z,0
2016-07-12T00:57:18.227Z,0
2016-07-12T00:58:18.264Z,0
2016-07-12T00:59:18.282Z,0
2016-07-12T01:00:33.224Z,0
2016-07-12T01:01:33.258Z,0
2016-07-12T01:02:18.367Z,0
2016-07-12T01:03:18.400Z,0
2016-07-12T01:04:18.433Z,0
2016-07-12T01:05:18.448Z,0
2016-07-12T01:06:18.474Z,0
2016-07-12T01:07:18.512Z,0
2016-07-12T01:09:18.570Z,0
2016-07-12T01:10:33.504Z,0
2016-07-12T01:11:18.619Z,0
2016-07-12T01:12:18.648Z,0
2016-07-12T01:13:18.675Z,0
2016-07-12T01:14:18.711Z,0
2016-07-12T01:15:18.732Z,0
2016-07-12T01:16:18.756Z,0
2016-07-12T01:17:33.698Z,0
2016-07-12T01:18:18.815Z,0
2016-07-12T01:19:18.844Z,0
2016-07-12T01:20:18.862Z,0
2016-07-12T01:21:18.895Z,0
2016-07-12T01:22:18.920Z,0
2016-07-12T01:23:18.951Z,0
2016-07-12T01:24:18.981Z,0
2016-07-12T01:25:19.013Z,0
2016-07-12T01:26:33.952Z,0
2016-07-12T01:27:19.066Z,0
2016-07-12T01:28:19.077Z,0
2016-07-12T01:29:19.114Z,0
2016-07-12T01:30:34.063Z,0
2016-07-12T01:31:34.095Z,0
2016-07-12T01:32:34.120Z,0
2016-07-12T01:34:19.956Z,0
2016-07-12T01:35:19.283Z,0
2016-07-12T01:36:19.315Z,0
2016-07-12T01:37:19.340Z,0
2016-07-12T01:38:19.370Z,0
2016-07-12T01:39:20.110Z,0
2016-07-12T01:40:19.424Z,0
2016-07-12T01:41:19.449Z,0
2016-07-12T01:42:34.398Z,0
2016-07-12T01:43:19.512Z,0
2016-07-12T01:44:19.529Z,0
2016-07-12T01:45:19.574Z,0
2016-07-12T01:46:20.281Z,0
2016-07-12T01:47:34.529Z,0
2016-07-12T01:48:34.563Z,0
2016-07-12T01:49:34.580Z,0
2016-07-12T01:50:19.708Z,0
2016-07-12T01:51:19.726Z,0
2016-07-12T01:52:19.751Z,0
2016-07-12T01:53:19.792Z,0
2016-07-12T01:54:19.816Z,0
2016-07-12T01:55:19.840Z,0
2016-07-12T01:56:19.865Z,0
2016-07-12T01:57:34.809Z,0
2016-07-12T01:58:19.922Z,0
2016-07-12T01:59:19.946Z,0
2016-07-12T02:02:34.948Z,0
2016-07-12T02:04:35.006Z,0
2016-07-12T02:05:20.121Z,0
2016-07-12T02:07:20.176Z,0
2016-07-12T02:08:35.109Z,0
2016-07-12T02:09:35.139Z,0
2016-07-12T02:10:35.160Z,0
2016-07-12T02:12:20.317Z,0
2016-07-12T02:14:20.356Z,0
2016-07-12T02:15:20.400Z,0
2016-07-12T02:16:36.028Z,0
2016-07-12T02:17:35.359Z,0
2016-07-12T02:18:20.466Z,0
2016-07-12T02:19:20.504Z,0
2016-07-12T02:20:20.534Z,0
2016-07-12T02:21:20.565Z,0
2016-07-12T02:22:20.584Z,0
2016-07-12T02:23:35.530Z,0
2016-07-12T02:24:35.551Z,0
2016-07-12T02:25:20.664Z,0
2016-07-12T02:26:20.693Z,0
2016-07-12T02:27:20.727Z,0
2016-07-12T02:28:20.748Z,0
2016-07-12T02:29:50.604Z,0
2016-07-12T02:30:20.798Z,0
2016-07-12T02:31:35.751Z,0
2016-07-12T02:32:20.857Z,0
2016-07-12T02:33:20.891Z,0
2016-07-12T02:34:20.914Z,0
2016-07-12T02:35:20.942Z,0
2016-07-12T02:36:35.897Z,0
2016-07-12T02:37:20.998Z,0
2016-07-12T02:38:21.019Z,0
2016-07-12T02:39:21.051Z,0
2016-07-12T02:40:21.098Z,0
2016-07-12T02:41:21.101Z,0
2016-07-12T02:42:21.129Z,0
2016-07-12T02:43:36.065Z,0
2016-07-12T02:44:21.183Z,0
2016-07-12T02:45:51.042Z,0
2016-07-12T02:46:21.241Z,0
2016-07-12T02:47:21.264Z,0
2016-07-12T02:48:21.293Z,0
2016-07-12T02:49:21.328Z,0
2016-07-12T02:50:36.271Z,0
2016-07-12T02:51:36.290Z,0
2016-07-12T02:52:36.325Z,0
2016-07-12T02:53:21.442Z,0
2016-07-12T02:54:21.470Z,0
2016-07-12T02:55:21.480Z,0
2016-07-12T02:56:21.517Z,0
2016-07-12T02:57:21.606Z,0
2016-07-12T02:58:21.571Z,0
2016-07-12T02:59:21.610Z,0
2016-07-12T03:00:21.628Z,0
2016-07-12T03:01:36.582Z,0
2016-07-12T03:02:21.686Z,0
2016-07-12T03:03:36.621Z,0
2016-07-12T03:04:21.749Z,0
2016-07-12T03:05:21.761Z,0
2016-07-12T03:06:36.707Z,0
2016-07-12T03:07:21.827Z,0
2016-07-12T03:08:21.837Z,0
2016-07-12T03:09:36.789Z,0
2016-07-12T03:10:21.902Z,0
2016-07-12T03:11:21.933Z,5
2016-07-12T03:12:36.869Z,5
2016-07-12T03:13:36.897Z,5
2016-07-12T03:14:22.010Z,5
2016-07-12T03:15:22.043Z,5
2016-07-12T03:16:22.770Z,5
2016-07-12T03:17:37.006Z,5
2016-07-12T03:18:22.116Z,5
2016-07-12T03:19:22.148Z,5
2016-07-12T03:20:22.174Z,5
2016-07-12T03:21:37.121Z,5
2016-07-12T03:22:22.927Z,5
2016-07-12T03:23:22.260Z,5
2016-07-12T03:24:37.200Z,5
2016-07-12T03:26:23.050Z,5
2016-07-12T03:27:37.278Z,5
2016-07-12T03:28:22.406Z,5
2016-07-12T03:29:22.433Z,5
2016-07-12T03:30:22.451Z,5
2016-07-12T03:31:22.484Z,5
2016-07-12T03:32:37.423Z,5
2016-07-12T03:33:22.533Z,5
2016-07-12T03:34:22.556Z,5
2016-07-12T03:35:23.295Z,5
2016-07-12T03:36:22.615Z,5
2016-07-12T03:37:37.559Z,5
2016-07-12T03:38:37.589Z,10
2016-07-12T03:39:37.612Z,10
2016-07-12T03:40:22.734Z,10
2016-07-12T03:41:22.763Z,10
2016-07-12T03:42:22.795Z,5
2016-07-12T03:43:22.826Z,10
2016-07-12T03:44:37.748Z,10
2016-07-12T03:46:22.886Z,10
2016-07-12T03:47:37.842Z,10
2016-07-12T03:48:22.959Z,10
2016-07-12T03:49:22.980Z,10
2016-07-12T03:50:23.019Z,10
2016-07-12T03:51:23.036Z,15
2016-07-12T03:52:23.061Z,15
2016-07-12T03:53:23.091Z,15
2016-07-12T03:54:38.028Z,15
2016-07-12T03:55:23.141Z,15
2016-07-12T03:56:23.164Z,15
2016-07-12T03:57:38.120Z,15
2016-07-12T03:58:23.223Z,15
2016-07-12T03:59:23.250Z,15
2016-07-12T04:00:38.186Z,15
2016-07-12T04:01:23.304Z,15
2016-07-12T04:02:23.336Z,15
2016-07-12T04:05:23.406Z,20
2016-07-12T04:06:23.435Z,20
2016-07-12T04:08:23.499Z,20
2016-07-12T04:09:38.440Z,20
2016-07-12T04:10:23.578Z,20
2016-07-12T04:11:23.576Z,20
2016-07-12T04:12:23.615Z,20
2016-07-12T04:13:23.626Z,20
2016-07-12T04:14:23.669Z,20
2016-07-12T04:15:23.687Z,20
2016-07-12T04:16:23.730Z,20
2016-07-12T04:17:24.456Z,25
2016-07-12T04:18:23.779Z,25
2016-07-12T04:19:38.725Z,25
2016-07-12T04:20:38.743Z,25
2016-07-12T04:21:38.775Z,25
2016-07-12T04:22:23.894Z,30
2016-07-12T04:23:38.833Z,30
2016-07-12T04:24:23.938Z,25
2016-07-12T04:25:23.973Z,25
2016-07-12T04:26:24.008Z,25
2016-07-12T04:27:38.936Z,25
2016-07-12T04:28:24.044Z,25
2016-07-12T04:29:24.072Z,25
2016-07-12T04:30:24.102Z,25
2016-07-12T04:31:24.144Z,25
2016-07-12T04:32:24.158Z,30
2016-07-12T04:33:24.193Z,30
2016-07-12T04:34:39.136Z,35
2016-07-12T04:35:24.234Z,35
2016-07-12T04:36:54.092Z,40
2016-07-12T04:37:24.290Z,40
2016-07-12T04:38:39.235Z,40
2016-07-12T04:39:24.350Z,40
2016-07-12T04:40:39.298Z,40
2016-07-12T04:41:39.318Z,40
2016-07-12T04:42:39.344Z,40
2016-07-12T04:43:24.466Z,40
2016-07-12T04:44:24.489Z,40
2016-07-12T04:45:24.516Z,40
2016-07-12T04:46:24.544Z,35
2016-07-12T04:47:24.567Z,35
2016-07-12T04:48:24.600Z,35
2016-07-12T04:49:24.629Z,35
2016-07-12T04:50:25.399Z,35
2016-07-12T04:51:24.689Z,35
2016-07-12T04:52:39.634Z,35
2016-07-12T04:53:24.738Z,35
2016-07-12T04:54:39.683Z,35
2016-07-12T04:55:24.803Z,35
2016-07-12T04:56:24.814Z,40
2016-07-12T04:57:24.853Z,40
2016-07-12T04:58:24.878Z,45
2016-07-12T04:59:39.822Z,45
2016-07-12T05:00:24.925Z,45
2016-07-12T05:01:24.967Z,45
2016-07-12T05:02:24.997Z,50
2016-07-12T05:04:25.093Z,50
2016-07-12T05:05:39.994Z,50
2016-07-12T05:06:25.099Z,50
2016-07-12T05:07:40.041Z,55
2016-07-12T05:08:25.155Z,55
2016-07-12T05:09:25.181Z,60
2016-07-12T05:10:25.206Z,65
2016-07-12T05:11:25.235Z,65
2016-07-12T05:12:25.259Z,70
2016-07-12T05:13:25.304Z,70
2016-07-12T05:14:25.324Z,70
2016-07-12T05:15:25.373Z,65
2016-07-12T05:16:25.382Z,65
2016-07-12T05:17:25.397Z,65
2016-07-12T05:18:25.440Z,65
2016-07-12T05:19:25.476Z,65
2016-07-12T05:20:25.497Z,65
2016-07-12T05:21:26.220Z,60
2016-07-12T05:22:25.547Z,55
2016-07-12T05:23:25.573Z,50
2016-07-12T05:24:25.598Z,50
2016-07-12T05:25:25.630Z,50
2016-07-12T05:26:40.574Z,50
2016-07-12T05:28:25.716Z,50
2016-07-12T05:29:25.746Z,50
2016-07-12T05:30:25.770Z,50
2016-07-12T05:31:40.707Z,55
2016-07-12T05:32:25.840Z,60
2016-07-12T05:33:40.761Z,60
2016-07-12T05:34:25.895Z,65
2016-07-12T05:35:25.912Z,70
2016-07-12T05:37:25.978Z,75
2016-07-12T05:38:25.991Z,70
2016-07-12T05:39:40.942Z,70
2016-07-12T05:40:26.049Z,65
2016-07-12T05:41:40.997Z,65
2016-07-12T05:42:41.015Z,60
2016-07-12T05:43:41.043Z,65
2016-07-12T05:44:26.166Z,70
2016-07-12T05:45:26.151Z,80
2016-07-12T05:46:26.182Z,80
2016-07-12T05:47:26.218Z,95
2016-07-12T05:48:26.231Z,90
2016-07-12T05:49:26.269Z,95
2016-07-12T05:50:26.297Z,95
2016-07-12T05:51:26.317Z,95
2016-07-12T05:53:41.299Z,100
2016-07-12T05:54:26.408Z,100
2016-07-12T05:55:41.346Z,95
2016-07-12T05:56:26.461Z,95
2016-07-12T05:57:26.482Z,95
2016-07-12T05:58:26.505Z,95
2016-07-12T05:59:26.534Z,95
2016-07-12T06:00:26.550Z,95
2016-07-12T06:01:26.582Z,95
2016-07-12T06:02:26.622Z,100
2016-07-12T06:03:26.636Z,105
2016-07-12T06:04:41.594Z,105
2016-07-12T06:05:41.627Z,95
2016-07-12T06:06:41.645Z,85
2016-07-12T06:07:41.676Z,70
2016-07-12T06:08:41.704Z,55
2016-07-12T06:09:26.811Z,55
2016-07-12T06:10:26.841Z,55
2016-07-12T06:12:26.893Z,65
2016-07-12T06:13:41.850Z,70
2016-07-12T06:14:26.951Z,75
2016-07-12T06:15:26.984Z,80
2016-07-12T06:16:27.015Z,85
2016-07-12T06:17:27.733Z,85
2016-07-12T06:18:27.062Z,80
2016-07-12T06:19:27.094Z,80
2016-07-12T06:20:42.042Z,80
2016-07-12T06:21:27.140Z,85
2016-07-12T06:22:42.103Z,90
2016-07-12T06:23:42.126Z,90
2016-07-12T06:24:27.224Z,85
2016-07-12T06:25:27.264Z,75
2016-07-12T06:26:27.284Z,65
2016-07-12T06:27:42.244Z,60
2016-07-12T06:28:27.347Z,60
2016-07-12T06:29:27.373Z,60
2016-07-12T06:30:27.399Z,55
2016-07-12T06:31:27.443Z,55
2016-07-12T06:32:27.475Z,50
2016-07-12T06:33:27.486Z,50
2016-07-12T06:34:27.517Z,50
2016-07-12T06:35:27.547Z,50
2016-07-12T06:36:27.571Z,45
2016-07-12T06:37:27.594Z,45
2016-07-12T06:38:57.482Z,50
2016-07-12T06:39:42.584Z,50
2016-07-12T06:40:57.534Z,50
2016-07-12T06:41:27.720Z,50
2016-07-12T06:42:42.672Z,50
2016-07-12T06:43:27.770Z,50
2016-07-12T06:44:27.801Z,50
2016-07-12T06:45:27.834Z,50
2016-07-12T06:46:27.851Z,50
2016-07-12T06:47:27.874Z,50
2016-07-12T06:48:27.913Z,50
2016-07-12T06:49:27.936Z,50
2016-07-12T06:50:42.902Z,50
2016-07-12T06:52:28.028Z,55
2016-07-12T06:53:28.054Z,60
2016-07-12T06:54:28.102Z,65
2016-07-12T06:55:28.111Z,70
2016-07-12T06:56:28.135Z,70
2016-07-12T06:57:28.163Z,70
2016-07-12T06:58:28.198Z,80
2016-07-12T06:59:43.139Z,90
2016-07-12T07:01:28.272Z,95
2016-07-12T07:02:28.305Z,105
2016-07-12T07:03:28.324Z,120
2016-07-12T07:04:28.364Z,140
2016-07-12T07:05:28.389Z,145
2016-07-12T07:06:43.338Z,150
2016-07-12T07:07:28.436Z,140
2016-07-12T07:08:28.473Z,130
2016-07-12T07:09:28.496Z,105
2016-07-12T07:10:28.528Z,115
2016-07-12T07:11:28.567Z,160
2016-07-12T07:12:28.588Z,200
2016-07-12T07:13:28.608Z,135
2016-07-12T07:14:43.564Z,95
2016-07-12T07:15:43.593Z,90
2016-07-12T07:16:28.703Z,95
2016-07-12T07:17:28.727Z,125
2016-07-12T07:18:43.682Z,155
2016-07-12T07:19:28.785Z,165
2016-07-12T07:20:28.818Z,155
2016-07-12T07:21:28.845Z,155
2016-07-12T07:22:28.873Z,175
2016-07-12T07:23:28.897Z,175
2016-07-12T07:24:29.102Z,170
2016-07-12T07:25:28.960Z,195
2016-07-12T07:26:28.984Z,225
2016-07-12T07:27:43.934Z,195
2016-07-12T07:28:29.044Z,190
2016-07-12T07:29:29.065Z,190
2016-07-12T07:30:44.023Z,185
2016-07-12T07:31:29.129Z,175
2016-07-12T07:32:29.164Z,155
2016-07-12T07:33:29.178Z,150
2016-07-12T07:34:29.227Z,145
2016-07-12T07:35:29.243Z,160
2016-07-12T07:36:44.196Z,185
2016-07-12T07:37:29.299Z,185
2016-07-12T07:38:44.254Z,190
2016-07-12T07:39:44.291Z,190
2016-07-12T07:40:29.397Z,185
2016-07-12T07:41:29.414Z,165
2016-07-12T07:42:29.448Z,170
2016-07-12T07:44:44.426Z,220
2016-07-12T07:45:29.532Z,220
2016-07-12T07:46:44.487Z,240
2016-07-12T07:47:29.591Z,250
2016-07-12T07:49:29.655Z,235
2016-07-12T07:50:29.684Z,195
2016-07-12T07:51:29.707Z,160
2016-07-12T07:52:29.743Z,145
2016-07-12T07:53:29.763Z,120
2016-07-12T07:54:30.497Z,105
2016-07-12T07:55:29.832Z,100
2016-07-12T07:56:29.856Z,110
2016-07-12T07:58:59.769Z,120
2016-07-12T07:59:45.564Z,120
2016-07-12T08:00:29.973Z,120
2016-07-12T08:01:30.707Z,125
2016-07-12T08:02:44.951Z,145
2016-07-12T08:03:30.058Z,155
2016-07-12T08:04:30.088Z,160
2016-07-12T08:05:30.112Z,165
2016-07-12T08:06:45.075Z,165
2016-07-12T08:07:30.168Z,160
2016-07-12T08:08:30.203Z,155
2016-07-12T08:09:30.233Z,150
2016-07-12T08:10:45.187Z,170
2016-07-12T08:11:30.311Z,185
2016-07-12T08:12:30.314Z,230
2016-07-12T08:13:30.356Z,195
2016-07-12T08:14:30.378Z,165
2016-07-12T08:15:45.335Z,145
2016-07-12T08:17:45.394Z,110
2016-07-12T08:18:30.499Z,105
2016-07-12T08:19:30.525Z,100
2016-07-12T08:20:30.564Z,90
2016-07-12T08:21:30.586Z,90
2016-07-12T08:22:30.614Z,90
2016-07-12T08:23:30.643Z,90
2016-07-12T08:24:30.666Z,95
2016-07-12T08:25:30.710Z,100
2016-07-12T08:26:30.728Z,100
2016-07-12T08:28:30.792Z,115
2016-07-12T08:29:30.816Z,120
2016-07-12T08:30:30.849Z,125
2016-07-12T08:31:45.809Z,140
2016-07-12T08:32:30.919Z,140
2016-07-12T08:33:30.951Z,150
2016-07-12T08:34:30.978Z,175
2016-07-12T08:35:30.993Z,180
2016-07-12T08:36:45.953Z,200
2016-07-12T08:37:45.982Z,230
2016-07-12T08:38:46.012Z,325
2016-07-12T08:39:31.123Z,300
2016-07-12T08:40:31.147Z,275
2016-07-12T08:41:31.167Z,310
2016-07-12T08:42:46.131Z,305
2016-07-12T08:43:31.234Z,285
2016-07-12T08:44:46.186Z,300
2016-07-12T08:45:46.224Z,315
2016-07-12T08:46:46.255Z,320
2016-07-12T08:47:31.363Z,310
2016-07-12T08:48:31.383Z,315
2016-07-12T08:49:46.335Z,345
2016-07-12T08:50:32.143Z,525
2016-07-12T08:51:31.477Z,325
2016-07-12T08:52:46.418Z,310
2016-07-12T08:53:31.527Z,325
2016-07-12T08:54:31.561Z,315
2016-07-12T08:55:31.591Z,570
2016-07-12T08:57:31.651Z,290
2016-07-12T08:58:31.680Z,280
2016-07-12T08:59:31.713Z,285
2016-07-12T09:00:46.663Z,270
2016-07-12T09:01:31.771Z,265
2016-07-12T09:03:01.659Z,265
2016-07-12T09:03:31.833Z,275
2016-07-12T09:04:31.859Z,360
2016-07-12T09:05:46.827Z,305
2016-07-12T09:06:31.978Z,305
2016-07-12T09:07:31.967Z,325
2016-07-12T09:08:31.994Z,370
2016-07-12T09:09:32.019Z,555
2016-07-12T09:10:32.049Z,560
2016-07-12T09:11:32.081Z,550
2016-07-12T09:12:32.105Z,545
2016-07-12T09:13:32.134Z,335
2016-07-12T09:14:32.173Z,330
2016-07-12T09:15:32.205Z,490
2016-07-12T09:16:32.241Z,335
2016-07-12T09:17:47.206Z,310
2016-07-12T09:18:32.300Z,540
2016-07-12T09:19:47.259Z,340
2016-07-12T09:20:32.360Z,300
2016-07-12T09:21:47.323Z,305
2016-07-12T09:22:32.427Z,285
2016-07-12T09:23:47.379Z,270
2016-07-12T09:25:32.517Z,295
2016-07-12T09:26:32.550Z,425
2016-07-12T09:27:32.587Z,410
2016-07-12T09:28:32.610Z,425
2016-07-12T09:29:47.581Z,425
2016-07-12T09:30:32.684Z,415
2016-07-12T09:31:32.706Z,380
2016-07-12T09:32:32.744Z,415
2016-07-12T09:33:32.772Z,280
2016-07-12T09:34:32.801Z,340
2016-07-12T09:35:32.841Z,420
2016-07-12T09:36:47.795Z,280
2016-07-12T09:38:02.754Z,435
2016-07-12T09:38:32.939Z,415
2016-07-12T09:39:32.964Z,360
2016-07-12T09:40:33.005Z,295
2016-07-12T09:42:33.050Z,295
2016-07-12T09:43:33.095Z,285
2016-07-12T09:44:33.118Z,285
2016-07-12T09:45:33.161Z,280
2016-07-12T09:46:33.197Z,280
2016-07-12T09:47:33.230Z,295
2016-07-12T09:48:33.251Z,370
2016-07-12T09:49:33.284Z,285
2016-07-12T09:50:33.328Z,280
2016-07-12T09:51:33.351Z,285
2016-07-12T09:52:48.308Z,330
2016-07-12T09:53:33.421Z,300
2016-07-12T09:54:33.447Z,345
2016-07-12T09:55:34.183Z,345
2016-07-12T09:56:33.513Z,325
2016-07-12T09:57:33.538Z,410
2016-07-12T09:59:33.613Z,415
2016-07-12T10:00:33.642Z,415
2016-07-12T10:01:33.669Z,345
2016-07-12T10:02:33.696Z,355
2016-07-12T10:03:33.734Z,395
2016-07-12T10:04:33.762Z,395
2016-07-12T10:06:33.831Z,370
2016-07-12T10:07:48.797Z,270
2016-07-12T10:08:33.894Z,255
2016-07-12T10:09:33.920Z,255
2016-07-12T10:10:33.959Z,320
2016-07-12T10:11:33.996Z,395
2016-07-12T10:12:34.010Z,385
2016-07-12T10:13:34.126Z,375
2016-07-12T10:14:34.093Z,295
2016-07-12T10:15:49.045Z,330
2016-07-12T10:16:34.150Z,360
2016-07-12T10:17:34.177Z,330
2016-07-12T10:18:34.217Z,315
2016-07-12T10:19:34.245Z,265
2016-07-12T10:21:34.320Z,345
2016-07-12T10:22:34.338Z,345
2016-07-12T10:23:34.375Z,345
2016-07-12T10:24:49.331Z,335
2016-07-12T10:25:34.447Z,335
2016-07-12T10:26:34.680Z,335
2016-07-12T10:27:34.508Z,325
2016-07-12T10:28:34.557Z,330
2016-07-12T10:29:34.574Z,325
2016-07-12T10:31:50.254Z,315
2016-07-12T10:32:34.663Z,310
2016-07-12T10:33:49.624Z,230
2016-07-12T10:35:26.671Z,295
2016-07-12T10:35:35.251Z,290
2016-07-12T10:36:35.284Z,290
2016-07-12T10:37:35.324Z,295
2016-07-12T10:38:35.356Z,295
2016-07-12T10:39:35.382Z,295
2016-07-12T10:40:36.108Z,295
2016-07-12T10:41:35.442Z,295
2016-07-12T10:42:35.482Z,285
2016-07-12T10:43:35.515Z,235
2016-07-12T10:44:50.480Z,295
2016-07-12T10:46:05.430Z,285
2016-07-12T10:46:35.610Z,275
2016-07-12T10:48:05.493Z,300
2016-07-12T10:48:35.682Z,300
2016-07-12T10:49:35.705Z,310
2016-07-12T10:51:35.775Z,295
2016-07-12T10:52:35.813Z,305
2016-07-12T10:53:35.829Z,225
2016-07-12T10:54:35.874Z,290
2016-07-12T10:55:35.895Z,330
2016-07-12T10:56:35.933Z,325
2016-07-12T10:57:50.948Z,270
2016-07-12T10:58:50.931Z,305
2016-07-12T10:59:36.037Z,320
2016-07-12T11:01:51.019Z,305
2016-07-12T11:02:36.126Z,315
2016-07-12T11:04:36.185Z,215
2016-07-12T11:05:51.150Z,265
2016-07-12T11:06:36.257Z,265
2016-07-12T11:07:36.343Z,200
2016-07-12T11:08:36.377Z,195
2016-07-12T11:10:36.374Z,210
2016-07-12T11:11:36.410Z,205
2016-07-12T11:12:36.442Z,205
2016-07-12T11:13:51.401Z,205
2016-07-12T11:14:51.433Z,200
2016-07-12T11:15:36.553Z,195
2016-07-12T11:16:36.573Z,185
2016-07-12T11:18:06.456Z,175
2016-07-12T11:18:36.642Z,175
2016-07-12T11:19:36.672Z,185
2016-07-12T11:20:51.630Z,300
2016-07-12T11:21:36.728Z,305
2016-07-12T11:23:36.795Z,230
2016-07-12T11:24:36.819Z,300
2016-07-12T11:25:36.847Z,275
2016-07-12T11:26:37.583Z,285
2016-07-12T11:27:36.917Z,280
2016-07-12T11:28:36.950Z,225
2016-07-12T11:29:36.970Z,205
2016-07-12T11:30:37.010Z,200
2016-07-12T11:31:51.970Z,200
2016-07-12T11:32:37.080Z,210
2016-07-12T11:33:52.030Z,210
2016-07-12T11:34:37.148Z,215
2016-07-12T11:35:52.090Z,215
2016-07-12T11:36:37.207Z,290
2016-07-12T11:37:37.235Z,295
2016-07-12T11:38:37.259Z,295
2016-07-12T11:39:37.297Z,290
2016-07-12T11:40:52.253Z,275
2016-07-12T11:41:37.364Z,305
2016-07-12T11:43:37.428Z,225
2016-07-12T11:44:37.453Z,220
2016-07-12T11:46:37.519Z,230
2016-07-12T11:47:37.554Z,265
2016-07-12T11:48:37.591Z,220
2016-07-12T11:49:52.541Z,220
2016-07-12T11:50:37.640Z,220
2016-07-12T11:51:37.678Z,220
2016-07-12T11:52:37.712Z,220
2016-07-12T11:53:38.431Z,245
2016-07-12T11:54:37.775Z,245
2016-07-12T11:55:37.807Z,250
2016-07-12T11:56:37.829Z,255
2016-07-12T11:57:37.858Z,255
2016-07-12T11:58:37.895Z,245
2016-07-12T11:59:37.929Z,250
2016-07-12T12:00:38.662Z,255
2016-07-12T12:01:38.005Z,255
2016-07-12T12:02:38.022Z,255
2016-07-12T12:03:38.064Z,250
2016-07-12T12:05:07.939Z,250
2016-07-12T12:05:53.041Z,255
2016-07-12T12:07:38.174Z,250
2016-07-12T12:08:38.213Z,240
2016-07-12T12:09:38.248Z,230
2016-07-12T12:10:53.212Z,225
2016-07-12T12:11:38.304Z,220
2016-07-12T12:12:38.338Z,215
2016-07-12T12:13:38.360Z,230
2016-07-12T12:14:38.402Z,235
2016-07-12T12:15:38.430Z,225
2016-07-12T12:16:38.468Z,235
2016-07-12T12:17:38.489Z,240
2016-07-12T12:18:38.518Z,255
2016-07-12T12:19:38.559Z,270
2016-07-12T12:20:53.509Z,275
2016-07-12T12:21:38.621Z,275
2016-07-12T12:22:53.570Z,265
2016-07-12T12:23:38.683Z,255
2016-07-12T12:24:53.631Z,265
2016-07-12T12:25:38.751Z,260
2016-07-12T12:26:39.482Z,255
2016-07-12T12:27:38.812Z,265
2016-07-12T12:28:38.841Z,265
2016-07-12T12:29:38.873Z,280
2016-07-12T12:30:38.901Z,270
2016-07-12T12:31:53.862Z,275
2016-07-12T12:32:38.978Z,255
2016-07-12T12:33:39.693Z,270
2016-07-12T12:34:39.026Z,260
2016-07-12T12:35:39.062Z,230
2016-07-12T12:37:08.945Z,245
2016-07-12T12:37:39.135Z,245
2016-07-12T12:38:39.168Z,255
2016-07-12T12:39:39.186Z,265
2016-07-12T12:40:39.208Z,275
2016-07-12T12:41:39.257Z,290
2016-07-12T12:42:39.286Z,290
2016-07-12T12:43:39.300Z,295
2016-07-12T12:44:39.350Z,280
2016-07-12T12:45:39.379Z,280
2016-07-12T12:46:39.399Z,275
2016-07-12T12:47:39.436Z,260
2016-07-12T12:48:54.398Z,255
2016-07-12T12:49:39.505Z,245
2016-07-12T12:50:54.465Z,245
2016-07-12T12:51:39.574Z,240
2016-07-12T12:52:54.529Z,230
2016-07-12T12:53:39.626Z,235
2016-07-12T12:54:39.669Z,230
2016-07-12T12:55:39.698Z,220
2016-07-12T12:56:39.722Z,205
2016-07-12T12:57:39.747Z,200
2016-07-12T12:58:39.788Z,210
2016-07-12T12:59:39.818Z,215
2016-07-12T13:00:39.842Z,215
2016-07-12T13:01:39.888Z,220
2016-07-12T13:02:39.916Z,225
2016-07-12T13:03:39.944Z,220
2016-07-12T13:04:39.982Z,220
2016-07-12T13:06:54.961Z,220
2016-07-12T13:07:40.091Z,220
2016-07-12T13:09:09.952Z,245
2016-07-12T13:09:40.130Z,240
2016-07-12T13:10:40.172Z,245
2016-07-12T13:11:40.188Z,250
2016-07-12T13:12:40.226Z,250
2016-07-12T13:13:40.255Z,255
2016-07-12T13:14:40.290Z,260
2016-07-12T13:15:40.321Z,265
2016-07-12T13:16:40.341Z,265
2016-07-12T13:18:40.412Z,255
2016-07-12T13:19:40.446Z,260
2016-07-12T13:20:55.392Z,260
2016-07-12T13:21:40.511Z,255
2016-07-12T13:22:40.541Z,255
2016-07-12T13:23:55.495Z,255
2016-07-12T13:24:55.527Z,260
2016-07-12T13:25:55.550Z,245
2016-07-12T13:26:40.676Z,240
2016-07-12T13:28:40.724Z,245
2016-07-12T13:29:40.773Z,240
2016-07-12T13:30:41.482Z,235
2016-07-12T13:31:40.821Z,225
2016-07-12T13:32:40.848Z,225
2016-07-12T13:33:40.886Z,240
2016-07-12T13:34:40.911Z,245
2016-07-12T13:35:55.873Z,240
2016-07-12T13:36:55.895Z,225
2016-07-12T13:37:41.009Z,230
2016-07-12T13:38:41.040Z,220
2016-07-12T13:39:41.779Z,210
2016-07-12T13:40:56.031Z,205
2016-07-12T13:41:41.139Z,205
2016-07-12T13:42:41.161Z,200
2016-07-12T13:43:41.917Z,200
2016-07-12T13:44:41.225Z,200
2016-07-12T13:45:41.269Z,195
2016-07-12T13:46:41.292Z,195
2016-07-12T13:47:41.323Z,195
2016-07-12T13:48:41.358Z,200
2016-07-12T13:49:41.391Z,205
2016-07-12T13:50:41.432Z,210
2016-07-12T13:51:56.376Z,215
2016-07-12T13:52:41.479Z,215
2016-07-12T13:53:41.510Z,215
2016-07-12T13:54:41.549Z,210
2016-07-12T13:55:56.650Z,215
2016-07-12T13:56:41.603Z,215
2016-07-12T13:58:56.595Z,220
2016-07-12T13:59:41.697Z,220
2016-07-12T14:00:41.730Z,225
2016-07-12T14:01:42.461Z,220
2016-07-12T14:02:41.785Z,220
2016-07-12T14:03:56.744Z,215
2016-07-12T14:04:41.854Z,210
2016-07-12T14:05:41.894Z,200
2016-07-12T14:07:41.963Z,195
2016-07-12T14:08:41.976Z,195
2016-07-12T14:09:42.019Z,190
2016-07-12T14:10:56.964Z,195
2016-07-12T14:11:42.086Z,195
2016-07-12T14:12:42.108Z,195
2016-07-12T14:13:42.139Z,190
2016-07-12T14:14:42.173Z,190
2016-07-12T14:15:42.199Z,190
2016-07-12T14:16:42.231Z,190
2016-07-12T14:17:42.391Z,190
2016-07-12T14:18:42.292Z,190
2016-07-12T14:19:42.332Z,190
2016-07-12T14:20:42.354Z,190
2016-07-12T14:22:42.416Z,195
2016-07-12T14:23:42.570Z,195
2016-07-12T14:24:57.410Z,200
2016-07-12T14:25:42.522Z,205
2016-07-12T14:27:57.497Z,200
2016-07-12T14:28:57.527Z,190
2016-07-12T14:29:42.633Z,190
2016-07-12T14:30:57.588Z,190
2016-07-12T14:31:42.700Z,190
2016-07-12T14:32:42.732Z,185
2016-07-12T14:33:42.776Z,190
2016-07-12T14:34:42.783Z,195
2016-07-12T14:35:42.821Z,190
2016-07-12T14:36:42.851Z,190
2016-07-12T14:37:42.883Z,190
2016-07-12T14:38:42.911Z,185
2016-07-12T14:39:43.637Z,190
2016-07-12T14:40:42.968Z,190
2016-07-12T14:41:57.940Z,190
2016-07-12T14:42:43.036Z,190
2016-07-12T14:43:57.998Z,195
2016-07-12T14:44:43.098Z,195
2016-07-12T14:45:58.053Z,200
2016-07-12T14:46:43.156Z,195
2016-07-12T14:47:43.187Z,200
2016-07-12T14:48:43.226Z,205
2016-07-12T14:49:43.251Z,205
2016-07-12T14:50:43.279Z,210
2016-07-12T14:51:58.241Z,200
2016-07-12T14:52:43.348Z,210
2016-07-12T14:53:58.299Z,205
2016-07-12T14:54:43.410Z,200
2016-07-12T14:55:43.446Z,190
2016-07-12T14:56:58.403Z,190
2016-07-12T14:57:58.425Z,185